Aérodrome :
LOGIN :

S'inscrire | Disclaimer

   EN    FR    IT 

 










Légende :    VFR   VFR Marginal   IFR   IFR Intensif   IFR Très Intensif
Visi : 
Plafond : 
>= 8 km
>= 3000ft
5 à 8 km
1000 à 3000 ft
1500m à 5 km
500 à 1000 ft
800 à 1500m
200 à 500 ft
< 800m
< 200 ft
Symboles :   Orages  Brouillard  Fortes neiges  Fortes précipitations  Vent > 20 kt
SIGMETs :   Divers  Orages  Givrage  Turbulence  Onde Orograph.  Cendres Volcan.






- Altitude de l'aérodrome : 138 ft
- Code IATA : BIO


LEBB - Bilbao

DERNIER METAR :
  • 250030Z AUTO 31003KT 9999 BKN021 10/08 Q1023

METARs EXPIRÉS :
  • 250000Z AUTO 34003KT 320V050 9999 BKN021 11/08 Q1023
  • 242330Z AUTO 11003KT 9999 BKN020 11/08 Q1022
  • 242300Z AUTO 13004KT 9999 BKN021 10/08 Q1023
  • 242230Z VRB02KT 9999 BKN022 11/08 Q1023 NOSIG
  • 242200Z 11003KT 9999 FEW015 BKN021 11/08 Q1023 NOSIG

TAF TAF LEBB
Valide du 25 à 00h jusqu'au 26 à 00h UTC


242300Z 2500/2524 13005KT 9999 SCT015 BKN020 TX14/2512Z TN08/2506Z
BECMG 2509/2513 30010KT
TEMPO 2512/2524 29015G25KT
TEMPO 2504/2518 3000 -RADZ BKN012
TEMPO 2506/2512 3000 RA BKN010
PROB40
TEMPO 2516/2524 SHRA SCT025TCU



MET'MAP, la Météo Aéronautique d'un coup d'oeil ! - Copyright ORBIFLY Décembre 2007 - Disclaimer

ORBIFLY MET'MAP TEAM :

Programmation & Développement : Alexandra Zaïnal
Sur une idée originale de : Baudouin d'Aumeries
Assistance à la programmation : Marc-Olivier Méhu
Soutien technique & logistique : Manuel Goepfert

Contact : metmap@orbifly.com




SOURCES & CREDITS :

   NOAA